createdAt,value
2019-05-20T00:04:19.141Z,24.60
2019-05-20T00:09:21.872Z,24.47
2019-05-20T00:14:24.647Z,31.03
2019-05-20T00:19:27.399Z,27.40
2019-05-20T00:24:30.117Z,29.23
2019-05-20T00:29:32.883Z,27.57
2019-05-20T00:34:35.847Z,31.03
2019-05-20T00:39:38.660Z,25.00
2019-05-20T00:44:41.421Z,30.17
2019-05-20T00:49:44.140Z,30.47
2019-05-20T00:54:47.829Z,28.30
2019-05-20T00:59:50.778Z,32.40
2019-05-20T01:04:53.506Z,33.83
2019-05-20T01:09:56.235Z,26.93
2019-05-20T01:14:59.078Z,29.10
2019-05-20T01:20:01.840Z,31.73
2019-05-20T01:25:04.830Z,39.20
2019-05-20T01:30:08.453Z,36.73
2019-05-20T01:35:13.182Z,37.77
2019-05-20T01:40:16.101Z,34.93
2019-05-20T01:45:18.878Z,33.53
2019-05-20T01:50:21.715Z,28.53
2019-05-20T01:55:24.409Z,31.07
2019-05-20T02:00:27.154Z,33.90
2019-05-20T02:05:29.847Z,34.43
2019-05-20T02:10:32.573Z,47.33
2019-05-20T02:15:47.019Z,34.43
2019-05-20T02:20:49.790Z,32.87
2019-05-20T02:25:52.514Z,29.83
2019-05-20T02:30:57.024Z,34.80
2019-05-20T02:35:59.802Z,30.07
2019-05-20T02:41:02.622Z,32.87
2019-05-20T02:46:05.664Z,36.03
2019-05-20T02:51:08.361Z,33.80
2019-05-20T02:56:11.069Z,30.93
2019-05-20T03:01:13.790Z,34.83
2019-05-20T03:06:16.518Z,38.63
2019-05-20T03:11:19.233Z,31.93
2019-05-20T03:16:21.941Z,40.97
2019-05-20T03:21:24.683Z,33.30
2019-05-20T03:26:27.372Z,41.33
2019-05-20T03:31:30.089Z,33.60
2019-05-20T03:36:32.811Z,30.77
2019-05-20T03:41:35.630Z,36.17
2019-05-20T03:46:38.347Z,40.40
2019-05-20T03:51:41.120Z,32.37
2019-05-20T03:56:43.924Z,36.00
2019-05-20T04:01:46.620Z,47.37
2019-05-20T04:06:49.329Z,38.70
2019-05-20T04:11:52.058Z,36.93
2019-05-20T04:16:57.668Z,37.20
2019-05-20T04:22:00.399Z,49.50
2019-05-20T04:27:03.169Z,42.20
2019-05-20T04:32:05.898Z,47.47
2019-05-20T04:37:08.725Z,45.57
2019-05-20T04:42:11.489Z,48.17
2019-05-20T04:47:14.193Z,42.40
2019-05-20T04:52:17.206Z,44.30
2019-05-20T04:57:20.371Z,68.93
2019-05-20T05:02:23.788Z,57.03
2019-05-20T05:07:27.311Z,82.60
2019-05-20T05:12:31.124Z,47.07
2019-05-20T05:17:35.216Z,56.47
2019-05-20T05:22:38.454Z,72.73
2019-05-20T05:27:41.223Z,48.47
2019-05-20T05:32:44.881Z,51.43
2019-05-20T05:37:48.254Z,66.33
2019-05-20T05:42:51.260Z,61.77
2019-05-20T05:47:53.970Z,59.20
2019-05-20T05:52:56.669Z,47.17
2019-05-20T05:57:59.394Z,56.23
2019-05-20T06:03:02.415Z,48.93
2019-05-20T06:08:05.175Z,46.37
2019-05-20T06:13:07.926Z,50.27
2019-05-20T06:18:11.388Z,57.97
2019-05-20T06:23:14.088Z,44.40
2019-05-20T06:28:16.801Z,48.73
2019-05-20T06:33:19.500Z,46.93
2019-05-20T06:38:56.893Z,42.13
2019-05-20T06:43:59.645Z,43.93
2019-05-20T06:49:02.395Z,41.97
2019-05-20T06:54:05.068Z,37.87
2019-05-20T06:59:07.750Z,44.17
2019-05-20T07:04:10.438Z,55.47
2019-05-20T07:09:13.133Z,49.97
2019-05-20T07:14:15.867Z,47.97
2019-05-20T07:19:18.619Z,57.07
2019-05-20T07:24:21.319Z,60.73
2019-05-20T07:29:24.019Z,55.23
2019-05-20T07:34:26.824Z,45.73
2019-05-20T07:39:29.602Z,49.73
2019-05-20T07:44:33.380Z,47.93
2019-05-20T07:49:37.208Z,41.40
2019-05-20T07:54:40.659Z,44.83
2019-05-20T07:59:47.701Z,48.67
2019-05-20T08:04:50.546Z,47.23
2019-05-20T08:09:53.298Z,43.23
2019-05-20T08:14:55.999Z,43.37
2019-05-20T08:19:58.729Z,41.50
2019-05-20T08:25:01.501Z,44.90
2019-05-20T08:30:05.279Z,41.13
2019-05-20T08:35:08.389Z,46.03
2019-05-20T08:40:11.306Z,41.80
2019-05-20T08:45:14.141Z,46.60
2019-05-20T08:50:16.940Z,42.27
2019-05-20T08:55:19.649Z,44.03
2019-05-20T09:00:24.215Z,45.90
2019-05-20T09:05:28.339Z,51.53
2019-05-20T09:10:31.459Z,58.97
2019-05-20T09:15:34.215Z,57.83
2019-05-20T09:20:36.995Z,55.13
2019-05-20T09:25:39.695Z,53.17
2019-05-20T09:30:43.050Z,53.87
2019-05-20T09:35:45.780Z,44.50
2019-05-20T09:40:49.071Z,44.47
2019-05-20T09:46:05.595Z,49.50
2019-05-20T09:50:56.468Z,47.90
2019-05-20T09:56:10.514Z,49.10
2019-05-20T10:01:16.840Z,42.67
2019-05-20T10:06:19.594Z,45.57
2019-05-20T10:11:22.342Z,42.40
2019-05-20T10:16:25.038Z,39.30
2019-05-20T10:21:27.749Z,36.23
2019-05-20T10:26:30.446Z,36.40
2019-05-20T10:31:33.415Z,34.13
2019-05-20T10:36:36.193Z,37.60
2019-05-20T10:41:38.906Z,32.30
2019-05-20T10:46:41.627Z,37.27
2019-05-20T10:51:44.471Z,32.50
2019-05-20T10:56:47.255Z,38.90
2019-05-20T11:01:49.951Z,41.80
2019-05-20T11:06:52.751Z,34.93
2019-05-20T11:11:55.460Z,34.17
2019-05-20T11:16:58.176Z,39.60
2019-05-20T11:22:00.900Z,33.87
2019-05-20T11:27:03.682Z,43.67
2019-05-20T11:32:06.400Z,35.63
2019-05-20T11:37:09.107Z,40.83
2019-05-20T11:42:12.041Z,41.50
2019-05-20T11:47:15.550Z,41.33
2019-05-20T11:52:18.570Z,41.27
2019-05-20T11:57:21.950Z,48.17
2019-05-20T12:02:24.906Z,47.20
2019-05-20T12:07:28.021Z,46.47
2019-05-20T12:12:30.984Z,29.70
2019-05-20T12:17:33.817Z,32.37
2019-05-20T12:22:36.526Z,28.43
2019-05-20T12:27:39.511Z,32.10
2019-05-20T12:32:42.195Z,32.67
2019-05-20T12:37:45.824Z,43.83
2019-05-20T12:42:48.705Z,32.87
2019-05-20T12:47:51.401Z,31.77
2019-05-20T12:52:54.114Z,31.20
2019-05-20T12:57:56.819Z,31.00
2019-05-20T13:02:59.514Z,27.37
2019-05-20T13:08:02.224Z,35.17
2019-05-20T13:13:04.900Z,32.57
2019-05-20T13:18:07.645Z,35.07
2019-05-20T13:23:12.858Z,32.37
2019-05-20T13:28:14.998Z,33.83
2019-05-20T13:33:17.689Z,26.60
2019-05-20T13:38:20.384Z,32.17
2019-05-20T13:43:23.070Z,24.77
2019-05-20T13:48:25.780Z,28.37
2019-05-20T13:53:28.471Z,28.73
2019-05-20T13:58:31.159Z,23.03
2019-05-20T14:03:33.847Z,22.70
2019-05-20T14:08:36.562Z,20.80
2019-05-20T14:13:39.245Z,19.73
2019-05-20T14:18:41.936Z,20.23
2019-05-20T14:23:46.503Z,17.07
2019-05-20T14:28:49.201Z,15.60
2019-05-20T14:33:51.902Z,16.37
2019-05-20T14:38:54.597Z,15.07
2019-05-20T14:43:57.317Z,14.30
2019-05-20T14:49:02.456Z,15.20
2019-05-20T14:54:04.600Z,14.50
2019-05-20T14:59:12.344Z,12.43
2019-05-20T15:04:15.100Z,14.03
2019-05-20T15:09:17.870Z,13.43
2019-05-20T15:14:20.621Z,30.83
2019-05-20T15:19:23.309Z,14.77
2019-05-20T15:24:25.995Z,16.30
2019-05-20T15:29:28.754Z,15.70
2019-05-20T15:34:31.490Z,15.77
2019-05-20T15:39:34.295Z,13.63
2019-05-20T15:44:37.036Z,11.97
2019-05-20T15:49:39.712Z,14.40
2019-05-20T15:54:42.427Z,12.47
2019-05-20T15:59:46.575Z,12.20
2019-05-20T16:04:49.585Z,13.20
2019-05-20T16:09:52.378Z,15.77
2019-05-20T16:14:55.088Z,14.03
2019-05-20T16:19:57.836Z,17.80
2019-05-20T16:25:00.755Z,15.37
2019-05-20T16:30:07.205Z,11.70
2019-05-20T16:35:09.337Z,12.53
2019-05-20T16:40:12.835Z,12.50
2019-05-20T16:45:15.696Z,13.80
2019-05-20T16:50:18.540Z,11.77
2019-05-20T16:55:21.262Z,15.70
2019-05-20T17:00:31.249Z,12.30
2019-05-20T17:05:28.569Z,12.63
2019-05-20T17:10:31.298Z,11.63
2019-05-20T17:15:34.017Z,18.23
2019-05-20T17:20:36.743Z,20.10
2019-05-20T17:25:39.656Z,38.27
2019-05-20T17:30:45.501Z,25.03
2019-05-20T17:35:46.967Z,24.97
2019-05-20T17:40:49.705Z,26.37
2019-05-20T17:45:52.445Z,31.27
2019-05-20T17:50:55.195Z,33.80
2019-05-20T17:55:57.918Z,30.13
2019-05-20T18:01:13.680Z,30.50
2019-05-20T18:06:05.364Z,37.63
2019-05-20T18:11:08.110Z,38.80
2019-05-20T18:16:10.823Z,40.20
2019-05-20T18:21:13.561Z,35.80
2019-05-20T18:26:16.258Z,39.90
2019-05-20T18:31:31.863Z,34.67
2019-05-20T18:36:23.560Z,36.37
2019-05-20T18:41:28.043Z,33.50
2019-05-20T18:46:30.754Z,37.33
2019-05-20T18:51:33.477Z,35.87
2019-05-20T18:56:36.197Z,34.40
2019-05-20T19:01:47.609Z,33.83
2019-05-20T19:06:43.575Z,45.17
2019-05-20T19:11:46.294Z,29.60
2019-05-20T19:16:49.042Z,29.40
2019-05-20T19:21:51.772Z,26.30
2019-05-20T19:26:54.681Z,28.97
2019-05-20T19:32:01.858Z,38.63
2019-05-20T19:37:02.141Z,37.57
2019-05-20T19:42:04.859Z,48.07
2019-05-20T19:47:07.620Z,70.17
2019-05-20T19:52:10.415Z,51.07
2019-05-20T19:57:13.140Z,67.47
2019-05-20T20:02:17.727Z,55.37
2019-05-20T20:07:20.451Z,62.17
2019-05-20T20:12:23.157Z,57.07
2019-05-20T20:17:25.922Z,60.47
2019-05-20T20:22:28.639Z,54.63
2019-05-20T20:27:31.670Z,55.10
2019-05-20T20:32:37.934Z,46.70
2019-05-20T20:37:39.096Z,49.00
2019-05-20T20:42:42.173Z,43.10
2019-05-20T20:47:44.898Z,48.70
2019-05-20T20:52:47.592Z,43.10
2019-05-20T20:57:50.281Z,49.37
2019-05-20T21:02:54.017Z,46.93
2019-05-20T21:07:56.798Z,46.77
2019-05-20T21:12:59.486Z,52.43
2019-05-20T21:18:02.180Z,56.30
2019-05-20T21:23:04.889Z,45.67
2019-05-20T21:28:07.618Z,44.03
2019-05-20T21:33:10.328Z,51.00
2019-05-20T21:38:13.060Z,51.37
2019-05-20T21:43:15.800Z,49.10
2019-05-20T21:48:18.541Z,57.07
2019-05-20T21:53:21.248Z,60.63
2019-05-20T21:58:23.944Z,70.70
2019-05-20T22:03:26.659Z,54.67
2019-05-20T22:08:29.373Z,64.93
2019-05-20T22:13:32.098Z,54.13
2019-05-20T22:18:34.839Z,54.90
2019-05-20T22:23:59.808Z,56.83
2019-05-20T22:29:02.510Z,64.13
2019-05-20T22:34:05.240Z,65.07
2019-05-20T22:39:08.284Z,54.50
2019-05-20T22:44:11.000Z,65.87
2019-05-20T22:49:13.695Z,66.90
2019-05-20T22:54:16.512Z,69.93
2019-05-20T22:59:19.241Z,64.37
2019-05-20T23:04:21.939Z,55.60
2019-05-20T23:09:24.630Z,63.70
2019-05-20T23:14:27.330Z,59.20
2019-05-20T23:19:30.041Z,55.77
2019-05-20T23:24:32.759Z,67.20
2019-05-20T23:29:35.467Z,62.00
2019-05-20T23:34:38.195Z,67.13
2019-05-20T23:39:41.025Z,59.20
2019-05-20T23:44:43.773Z,55.70
2019-05-20T23:49:46.493Z,60.77
2019-05-20T23:54:49.199Z,59.83
2019-05-20T23:59:51.914Z,59.10
